sensor_id;sensor_type;location;lat;lon;timestamp;temperature;humidity
18252;DHT22;26917;52.328;20.878;2022-07-23T00:01:30;20.60;98.00
18252;DHT22;26917;52.328;20.878;2022-07-23T00:03:59;20.60;98.10
18252;DHT22;26917;52.328;20.878;2022-07-23T00:06:28;20.50;97.90
18252;DHT22;26917;52.328;20.878;2022-07-23T00:08:56;20.40;98.00
18252;DHT22;26917;52.328;20.878;2022-07-23T00:11:25;20.40;97.90
18252;DHT22;26917;52.328;20.878;2022-07-23T00:13:55;20.40;98.00
18252;DHT22;26917;52.328;20.878;2022-07-23T00:16:25;20.40;98.40
18252;DHT22;26917;52.328;20.878;2022-07-23T00:18:53;20.30;98.30
18252;DHT22;26917;52.328;20.878;2022-07-23T00:21:22;20.30;98.40
18252;DHT22;26917;52.328;20.878;2022-07-23T00:23:51;20.20;98.50
18252;DHT22;26917;52.328;20.878;2022-07-23T00:26:20;20.10;98.30
18252;DHT22;26917;52.328;20.878;2022-07-23T00:28:48;20.10;98.40
18252;DHT22;26917;52.328;20.878;2022-07-23T00:31:22;20.10;98.50
18252;DHT22;26917;52.328;20.878;2022-07-23T00:33:51;20.00;98.70
18252;DHT22;26917;52.328;20.878;2022-07-23T00:36:23;19.90;98.90
18252;DHT22;26917;52.328;20.878;2022-07-23T00:38:52;19.80;99.30
18252;DHT22;26917;52.328;20.878;2022-07-23T00:41:20;19.70;99.50
18252;DHT22;26917;52.328;20.878;2022-07-23T00:43:49;19.70;99.60
18252;DHT22;26917;52.328;20.878;2022-07-23T00:46:19;19.60;99.80
18252;DHT22;26917;52.328;20.878;2022-07-23T00:48:49;19.60;99.90
18252;DHT22;26917;52.328;20.878;2022-07-23T00:51:35;19.50;99.90
18252;DHT22;26917;52.328;20.878;2022-07-23T00:54:03;19.40;99.90
18252;DHT22;26917;52.328;20.878;2022-07-23T00:56:32;19.40;99.90
18252;DHT22;26917;52.328;20.878;2022-07-23T00:59:01;19.30;99.90
18252;DHT22;26917;52.328;20.878;2022-07-23T01:01:30;19.30;99.90
18252;DHT22;26917;52.328;20.878;2022-07-23T01:04:00;19.30;99.90
18252;DHT22;26917;52.328;20.878;2022-07-23T01:06:28;19.30;99.90
18252;DHT22;26917;52.328;20.878;2022-07-23T01:08:57;19.30;99.90
18252;DHT22;26917;52.328;20.878;2022-07-23T01:11:26;19.30;99.90
18252;DHT22;26917;52.328;20.878;2022-07-23T01:13:54;19.20;99.90
18252;DHT22;26917;52.328;20.878;2022-07-23T01:16:23;19.20;99.90
18252;DHT22;26917;52.328;20.878;2022-07-23T01:18:51;19.20;99.90
18252;DHT22;26917;52.328;20.878;2022-07-23T01:21:22;19.20;99.90
18252;DHT22;26917;52.328;20.878;2022-07-23T01:23:51;19.30;99.90
18252;DHT22;26917;52.328;20.878;2022-07-23T01:26:20;19.30;99.90
18252;DHT22;26917;52.328;20.878;2022-07-23T01:28:49;19.30;99.90
18252;DHT22;26917;52.328;20.878;2022-07-23T01:31:17;19.30;99.90
18252;DHT22;26917;52.328;20.878;2022-07-23T01:33:46;19.20;99.90
18252;DHT22;26917;52.328;20.878;2022-07-23T01:36:14;19.10;99.90
18252;DHT22;26917;52.328;20.878;2022-07-23T01:38:43;19.00;99.90
18252;DHT22;26917;52.328;20.878;2022-07-23T01:41:13;19.00;99.90
18252;DHT22;26917;52.328;20.878;2022-07-23T01:43:42;18.90;99.90
18252;DHT22;26917;52.328;20.878;2022-07-23T01:46:11;18.90;99.90
18252;DHT22;26917;52.328;20.878;2022-07-23T01:48:44;18.90;99.90
18252;DHT22;26917;52.328;20.878;2022-07-23T01:51:42;18.90;99.90
18252;DHT22;26917;52.328;20.878;2022-07-23T01:54:27;18.80;99.90
18252;DHT22;26917;52.328;20.878;2022-07-23T01:56:59;18.80;99.90
18252;DHT22;26917;52.328;20.878;2022-07-23T01:59:28;18.70;99.90
18252;DHT22;26917;52.328;20.878;2022-07-23T02:01:58;18.70;99.90
18252;DHT22;26917;52.328;20.878;2022-07-23T02:04:27;18.70;99.90
18252;DHT22;26917;52.328;20.878;2022-07-23T02:06:56;18.70;99.90
18252;DHT22;26917;52.328;20.878;2022-07-23T02:09:26;18.70;99.90
18252;DHT22;26917;52.328;20.878;2022-07-23T02:11:55;18.60;99.90
18252;DHT22;26917;52.328;20.878;2022-07-23T02:14:25;18.60;99.90
18252;DHT22;26917;52.328;20.878;2022-07-23T02:16:54;18.50;99.90
18252;DHT22;26917;52.328;20.878;2022-07-23T02:19:22;18.50;99.90
18252;DHT22;26917;52.328;20.878;2022-07-23T02:21:51;18.50;99.90
18252;DHT22;26917;52.328;20.878;2022-07-23T02:24:21;18.50;99.90
18252;DHT22;26917;52.328;20.878;2022-07-23T02:26:50;18.50;99.90
18252;DHT22;26917;52.328;20.878;2022-07-23T02:29:18;18.50;99.90
18252;DHT22;26917;52.328;20.878;2022-07-23T02:31:48;18.40;99.90
18252;DHT22;26917;52.328;20.878;2022-07-23T02:34:16;18.40;99.90
18252;DHT22;26917;52.328;20.878;2022-07-23T02:36:45;18.40;99.90
18252;DHT22;26917;52.328;20.878;2022-07-23T02:39:13;18.40;99.90
18252;DHT22;26917;52.328;20.878;2022-07-23T02:41:43;18.40;99.90
18252;DHT22;26917;52.328;20.878;2022-07-23T02:44:11;18.40;99.90
18252;DHT22;26917;52.328;20.878;2022-07-23T02:46:43;18.40;99.90
18252;DHT22;26917;52.328;20.878;2022-07-23T02:49:13;18.40;99.90
18252;DHT22;26917;52.328;20.878;2022-07-23T02:51:42;18.30;99.90
18252;DHT22;26917;52.328;20.878;2022-07-23T02:54:11;18.30;99.90
18252;DHT22;26917;52.328;20.878;2022-07-23T02:56:39;18.40;99.90
18252;DHT22;26917;52.328;20.878;2022-07-23T02:59:08;18.40;99.90
18252;DHT22;26917;52.328;20.878;2022-07-23T03:01:37;18.50;99.90
18252;DHT22;26917;52.328;20.878;2022-07-23T03:04:08;18.50;99.90
18252;DHT22;26917;52.328;20.878;2022-07-23T03:06:38;18.50;99.90
18252;DHT22;26917;52.328;20.878;2022-07-23T03:09:06;18.40;99.90
18252;DHT22;26917;52.328;20.878;2022-07-23T03:11:38;18.40;99.90
18252;DHT22;26917;52.328;20.878;2022-07-23T03:14:06;18.30;99.90
18252;DHT22;26917;52.328;20.878;2022-07-23T03:16:35;18.20;99.90
18252;DHT22;26917;52.328;20.878;2022-07-23T03:19:04;18.20;99.90
18252;DHT22;26917;52.328;20.878;2022-07-23T03:21:33;18.20;99.90
18252;DHT22;26917;52.328;20.878;2022-07-23T03:24:03;18.20;99.90
18252;DHT22;26917;52.328;20.878;2022-07-23T03:26:35;18.20;99.90
18252;DHT22;26917;52.328;20.878;2022-07-23T03:29:03;18.20;99.90
18252;DHT22;26917;52.328;20.878;2022-07-23T03:31:32;18.10;99.90
18252;DHT22;26917;52.328;20.878;2022-07-23T03:34:01;18.10;99.90
18252;DHT22;26917;52.328;20.878;2022-07-23T03:36:30;18.10;99.90
18252;DHT22;26917;52.328;20.878;2022-07-23T03:38:59;18.10;99.90
18252;DHT22;26917;52.328;20.878;2022-07-23T03:41:29;18.00;99.90
18252;DHT22;26917;52.328;20.878;2022-07-23T03:43:58;18.00;99.90
18252;DHT22;26917;52.328;20.878;2022-07-23T03:46:27;18.00;99.90
18252;DHT22;26917;52.328;20.878;2022-07-23T03:48:55;18.00;99.90
18252;DHT22;26917;52.328;20.878;2022-07-23T03:51:25;18.00;99.90
18252;DHT22;26917;52.328;20.878;2022-07-23T03:53:53;18.00;99.90
18252;DHT22;26917;52.328;20.878;2022-07-23T03:56:22;18.10;99.90
18252;DHT22;26917;52.328;20.878;2022-07-23T03:58:52;18.10;99.90
18252;DHT22;26917;52.328;20.878;2022-07-23T04:01:20;18.20;99.90
18252;DHT22;26917;52.328;20.878;2022-07-23T04:03:49;18.20;99.90
18252;DHT22;26917;52.328;20.878;2022-07-23T04:06:17;18.20;99.90
18252;DHT22;26917;52.328;20.878;2022-07-23T04:08:47;18.20;99.90
18252;DHT22;26917;52.328;20.878;2022-07-23T04:11:15;18.30;99.90
18252;DHT22;26917;52.328;20.878;2022-07-23T04:13:43;18.30;99.90
18252;DHT22;26917;52.328;20.878;2022-07-23T04:16:14;18.40;99.90
18252;DHT22;26917;52.328;20.878;2022-07-23T04:18:45;18.40;99.90
18252;DHT22;26917;52.328;20.878;2022-07-23T04:21:16;18.50;99.90
18252;DHT22;26917;52.328;20.878;2022-07-23T04:23:46;18.50;99.90
18252;DHT22;26917;52.328;20.878;2022-07-23T04:26:15;18.60;99.90
18252;DHT22;26917;52.328;20.878;2022-07-23T04:28:46;18.70;99.90
18252;DHT22;26917;52.328;20.878;2022-07-23T04:31:15;18.80;99.90
18252;DHT22;26917;52.328;20.878;2022-07-23T04:33:44;18.80;99.90
18252;DHT22;26917;52.328;20.878;2022-07-23T04:36:13;18.90;99.90
18252;DHT22;26917;52.328;20.878;2022-07-23T04:38:41;19.00;99.90
18252;DHT22;26917;52.328;20.878;2022-07-23T04:41:10;19.10;99.90
18252;DHT22;26917;52.328;20.878;2022-07-23T04:43:39;19.10;99.90
18252;DHT22;26917;52.328;20.878;2022-07-23T04:46:08;19.10;99.90
18252;DHT22;26917;52.328;20.878;2022-07-23T04:48:46;19.20;99.90
18252;DHT22;26917;52.328;20.878;2022-07-23T04:51:14;19.30;99.90
18252;DHT22;26917;52.328;20.878;2022-07-23T04:53:43;19.40;99.90
18252;DHT22;26917;52.328;20.878;2022-07-23T04:56:12;19.50;99.90
18252;DHT22;26917;52.328;20.878;2022-07-23T04:58:40;19.50;99.90
18252;DHT22;26917;52.328;20.878;2022-07-23T05:01:10;19.50;99.90
18252;DHT22;26917;52.328;20.878;2022-07-23T05:03:38;19.60;99.90
18252;DHT22;26917;52.328;20.878;2022-07-23T05:06:08;19.70;99.90
18252;DHT22;26917;52.328;20.878;2022-07-23T05:08:37;19.70;99.90
18252;DHT22;26917;52.328;20.878;2022-07-23T05:11:05;19.80;99.90
18252;DHT22;26917;52.328;20.878;2022-07-23T05:13:34;19.90;99.90
18252;DHT22;26917;52.328;20.878;2022-07-23T05:16:05;19.90;99.90
18252;DHT22;26917;52.328;20.878;2022-07-23T05:18:35;20.00;99.90
18252;DHT22;26917;52.328;20.878;2022-07-23T05:21:04;20.10;99.90
18252;DHT22;26917;52.328;20.878;2022-07-23T05:23:34;20.20;99.90
18252;DHT22;26917;52.328;20.878;2022-07-23T05:26:03;20.20;99.90
18252;DHT22;26917;52.328;20.878;2022-07-23T05:28:32;20.30;99.90
18252;DHT22;26917;52.328;20.878;2022-07-23T05:31:01;20.40;99.90
18252;DHT22;26917;52.328;20.878;2022-07-23T05:33:31;20.50;99.90
18252;DHT22;26917;52.328;20.878;2022-07-23T05:36:01;20.50;99.90
18252;DHT22;26917;52.328;20.878;2022-07-23T05:38:33;20.60;99.90
18252;DHT22;26917;52.328;20.878;2022-07-23T05:41:03;20.70;99.90
18252;DHT22;26917;52.328;20.878;2022-07-23T05:43:31;20.70;99.90
18252;DHT22;26917;52.328;20.878;2022-07-23T05:46:06;20.80;99.90
18252;DHT22;26917;52.328;20.878;2022-07-23T05:48:38;20.80;99.90
18252;DHT22;26917;52.328;20.878;2022-07-23T05:51:20;20.90;99.90
18252;DHT22;26917;52.328;20.878;2022-07-23T05:53:52;21.00;99.90
18252;DHT22;26917;52.328;20.878;2022-07-23T05:56:24;21.10;99.90
18252;DHT22;26917;52.328;20.878;2022-07-23T05:58:52;21.20;99.90
18252;DHT22;26917;52.328;20.878;2022-07-23T06:01:21;21.30;99.90
18252;DHT22;26917;52.328;20.878;2022-07-23T06:03:59;21.40;99.90
18252;DHT22;26917;52.328;20.878;2022-07-23T06:06:34;21.50;99.90
18252;DHT22;26917;52.328;20.878;2022-07-23T06:09:04;21.60;99.90
18252;DHT22;26917;52.328;20.878;2022-07-23T06:11:34;21.70;99.90
18252;DHT22;26917;52.328;20.878;2022-07-23T06:14:02;21.80;99.90
18252;DHT22;26917;52.328;20.878;2022-07-23T06:16:55;22.00;99.90
18252;DHT22;26917;52.328;20.878;2022-07-23T06:19:24;22.20;99.90
18252;DHT22;26917;52.328;20.878;2022-07-23T06:21:53;22.30;99.90
18252;DHT22;26917;52.328;20.878;2022-07-23T06:24:32;22.50;99.90
18252;DHT22;26917;52.328;20.878;2022-07-23T06:27:00;22.60;99.90
18252;DHT22;26917;52.328;20.878;2022-07-23T06:29:29;22.70;99.90
18252;DHT22;26917;52.328;20.878;2022-07-23T06:31:58;22.80;99.90
18252;DHT22;26917;52.328;20.878;2022-07-23T06:34:27;23.00;99.90
18252;DHT22;26917;52.328;20.878;2022-07-23T06:36:56;23.10;99.90
18252;DHT22;26917;52.328;20.878;2022-07-23T06:39:26;23.20;99.90
18252;DHT22;26917;52.328;20.878;2022-07-23T06:41:56;23.30;99.90
18252;DHT22;26917;52.328;20.878;2022-07-23T06:44:38;23.40;99.90
18252;DHT22;26917;52.328;20.878;2022-07-23T06:47:07;23.50;99.90
18252;DHT22;26917;52.328;20.878;2022-07-23T06:49:38;23.60;99.90
18252;DHT22;26917;52.328;20.878;2022-07-23T06:52:08;23.70;99.90
18252;DHT22;26917;52.328;20.878;2022-07-23T06:54:36;23.80;99.90
18252;DHT22;26917;52.328;20.878;2022-07-23T06:57:06;23.90;99.90
18252;DHT22;26917;52.328;20.878;2022-07-23T06:59:35;23.90;99.90
18252;DHT22;26917;52.328;20.878;2022-07-23T07:02:08;24.00;99.90
18252;DHT22;26917;52.328;20.878;2022-07-23T07:04:37;24.10;99.60
18252;DHT22;26917;52.328;20.878;2022-07-23T07:07:06;24.10;99.70
18252;DHT22;26917;52.328;20.878;2022-07-23T07:09:34;24.20;99.70
18252;DHT22;26917;52.328;20.878;2022-07-23T07:12:03;24.30;99.50
18252;DHT22;26917;52.328;20.878;2022-07-23T07:14:33;24.40;99.50
18252;DHT22;26917;52.328;20.878;2022-07-23T07:17:01;24.50;99.10
18252;DHT22;26917;52.328;20.878;2022-07-23T07:19:34;24.60;98.80
18252;DHT22;26917;52.328;20.878;2022-07-23T07:22:03;24.70;98.50
18252;DHT22;26917;52.328;20.878;2022-07-23T07:24:31;24.70;98.00
18252;DHT22;26917;52.328;20.878;2022-07-23T07:27:04;24.90;98.30
18252;DHT22;26917;52.328;20.878;2022-07-23T07:29:34;25.00;97.40
18252;DHT22;26917;52.328;20.878;2022-07-23T07:32:05;25.10;97.60
18252;DHT22;26917;52.328;20.878;2022-07-23T07:34:35;25.20;97.30
18252;DHT22;26917;52.328;20.878;2022-07-23T07:37:04;25.20;97.80
18252;DHT22;26917;52.328;20.878;2022-07-23T07:39:32;25.30;97.70
18252;DHT22;26917;52.328;20.878;2022-07-23T07:42:04;25.40;94.60
18252;DHT22;26917;52.328;20.878;2022-07-23T07:44:34;25.70;94.00
18252;DHT22;26917;52.328;20.878;2022-07-23T07:47:02;25.90;94.60
18252;DHT22;26917;52.328;20.878;2022-07-23T07:49:31;26.10;94.00
18252;DHT22;26917;52.328;20.878;2022-07-23T07:52:07;26.30;93.20
18252;DHT22;26917;52.328;20.878;2022-07-23T07:54:36;26.50;92.30
18252;DHT22;26917;52.328;20.878;2022-07-23T07:57:05;26.60;92.00
18252;DHT22;26917;52.328;20.878;2022-07-23T07:59:39;26.90;91.80
18252;DHT22;26917;52.328;20.878;2022-07-23T08:02:07;27.00;91.30
18252;DHT22;26917;52.328;20.878;2022-07-23T08:04:36;27.00;91.70
18252;DHT22;26917;52.328;20.878;2022-07-23T08:07:06;26.90;91.30
18252;DHT22;26917;52.328;20.878;2022-07-23T08:09:35;26.90;91.00
18252;DHT22;26917;52.328;20.878;2022-07-23T08:12:03;26.80;90.80
18252;DHT22;26917;52.328;20.878;2022-07-23T08:14:40;26.70;91.20
18252;DHT22;26917;52.328;20.878;2022-07-23T08:17:08;26.60;91.60
18252;DHT22;26917;52.328;20.878;2022-07-23T08:19:40;26.70;91.50
18252;DHT22;26917;52.328;20.878;2022-07-23T08:22:09;26.70;91.20
18252;DHT22;26917;52.328;20.878;2022-07-23T08:24:37;26.70;91.60
18252;DHT22;26917;52.328;20.878;2022-07-23T08:27:06;26.80;91.10
18252;DHT22;26917;52.328;20.878;2022-07-23T08:29:34;26.80;91.20
18252;DHT22;26917;52.328;20.878;2022-07-23T08:32:05;26.90;90.20
18252;DHT22;26917;52.328;20.878;2022-07-23T08:34:53;27.00;90.80
18252;DHT22;26917;52.328;20.878;2022-07-23T08:37:22;27.00;91.10
18252;DHT22;26917;52.328;20.878;2022-07-23T08:39:54;27.00;91.50
18252;DHT22;26917;52.328;20.878;2022-07-23T08:42:25;27.00;91.00
18252;DHT22;26917;52.328;20.878;2022-07-23T08:44:54;27.10;91.10
18252;DHT22;26917;52.328;20.878;2022-07-23T08:47:25;27.20;90.80
18252;DHT22;26917;52.328;20.878;2022-07-23T08:49:55;27.30;91.00
18252;DHT22;26917;52.328;20.878;2022-07-23T08:52:25;27.40;90.70
18252;DHT22;26917;52.328;20.878;2022-07-23T08:54:55;27.50;90.90
18252;DHT22;26917;52.328;20.878;2022-07-23T08:57:25;27.50;90.90
18252;DHT22;26917;52.328;20.878;2022-07-23T08:59:54;27.60;90.60
18252;DHT22;26917;52.328;20.878;2022-07-23T09:02:23;27.70;90.00
18252;DHT22;26917;52.328;20.878;2022-07-23T09:04:52;27.90;88.50
18252;DHT22;26917;52.328;20.878;2022-07-23T09:07:26;28.20;87.80
18252;DHT22;26917;52.328;20.878;2022-07-23T09:10:09;28.50;85.40
18252;DHT22;26917;52.328;20.878;2022-07-23T09:12:40;28.90;83.60
18252;DHT22;26917;52.328;20.878;2022-07-23T09:15:16;29.30;82.60
18252;DHT22;26917;52.328;20.878;2022-07-23T09:17:46;29.50;81.80
18252;DHT22;26917;52.328;20.878;2022-07-23T09:20:16;29.90;81.70
18252;DHT22;26917;52.328;20.878;2022-07-23T09:22:46;30.20;82.60
18252;DHT22;26917;52.328;20.878;2022-07-23T09:25:18;30.60;79.10
18252;DHT22;26917;52.328;20.878;2022-07-23T09:27:53;31.00;73.50
18252;DHT22;26917;52.328;20.878;2022-07-23T09:30:23;31.60;74.60
18252;DHT22;26917;52.328;20.878;2022-07-23T09:33:06;32.10;73.90
18252;DHT22;26917;52.328;20.878;2022-07-23T09:35:48;32.50;73.30
18252;DHT22;26917;52.328;20.878;2022-07-23T09:38:21;32.80;71.90
18252;DHT22;26917;52.328;20.878;2022-07-23T09:41:06;32.80;71.40
18252;DHT22;26917;52.328;20.878;2022-07-23T09:43:35;32.70;71.80
18252;DHT22;26917;52.328;20.878;2022-07-23T09:46:17;32.30;71.60
18252;DHT22;26917;52.328;20.878;2022-07-23T09:48:47;31.80;73.10
18252;DHT22;26917;52.328;20.878;2022-07-23T09:51:16;31.40;73.70
18252;DHT22;26917;52.328;20.878;2022-07-23T09:53:49;31.10;74.40
18252;DHT22;26917;52.328;20.878;2022-07-23T09:56:20;30.90;74.20
18252;DHT22;26917;52.328;20.878;2022-07-23T09:58:54;30.70;76.00
18252;DHT22;26917;52.328;20.878;2022-07-23T10:01:36;30.50;75.30
18252;DHT22;26917;52.328;20.878;2022-07-23T10:04:07;30.50;76.00
18252;DHT22;26917;52.328;20.878;2022-07-23T10:07:09;30.60;76.80
18252;DHT22;26917;52.328;20.878;2022-07-23T10:10:07;30.90;74.30
18252;DHT22;26917;52.328;20.878;2022-07-23T10:12:39;31.60;72.70
18252;DHT22;26917;52.328;20.878;2022-07-23T10:15:25;32.40;70.80
18252;DHT22;26917;52.328;20.878;2022-07-23T10:17:55;33.40;71.00
18252;DHT22;26917;52.328;20.878;2022-07-23T10:20:28;34.20;69.50
18252;DHT22;26917;52.328;20.878;2022-07-23T10:23:02;34.60;65.60
18252;DHT22;26917;52.328;20.878;2022-07-23T10:25:43;34.90;64.90
18252;DHT22;26917;52.328;20.878;2022-07-23T10:28:30;34.70;63.20
18252;DHT22;26917;52.328;20.878;2022-07-23T10:31:07;34.50;64.10
18252;DHT22;26917;52.328;20.878;2022-07-23T10:34:07;34.60;62.70
18252;DHT22;26917;52.328;20.878;2022-07-23T10:36:47;34.60;61.80
18252;DHT22;26917;52.328;20.878;2022-07-23T10:39:20;35.00;62.30
18252;DHT22;26917;52.328;20.878;2022-07-23T10:41:51;35.40;63.70
18252;DHT22;26917;52.328;20.878;2022-07-23T10:44:22;35.70;62.30
18252;DHT22;26917;52.328;20.878;2022-07-23T10:46:56;35.90;63.30
18252;DHT22;26917;52.328;20.878;2022-07-23T10:49:49;36.20;64.20
18252;DHT22;26917;52.328;20.878;2022-07-23T10:52:27;36.60;61.30
18252;DHT22;26917;52.328;20.878;2022-07-23T10:58:04;37.30;58.80
18252;DHT22;26917;52.328;20.878;2022-07-23T11:00:33;37.50;58.70
18252;DHT22;26917;52.328;20.878;2022-07-23T11:03:06;37.60;58.30
18252;DHT22;26917;52.328;20.878;2022-07-23T11:05:53;37.60;58.00
18252;DHT22;26917;52.328;20.878;2022-07-23T11:08:23;37.50;58.30
18252;DHT22;26917;52.328;20.878;2022-07-23T11:10:54;37.50;57.70
18252;DHT22;26917;52.328;20.878;2022-07-23T11:13:30;37.50;57.90
18252;DHT22;26917;52.328;20.878;2022-07-23T11:16:14;37.30;58.00
18252;DHT22;26917;52.328;20.878;2022-07-23T11:19:07;37.10;58.00
18252;DHT22;26917;52.328;20.878;2022-07-23T11:21:47;36.50;58.00
18252;DHT22;26917;52.328;20.878;2022-07-23T11:24:24;36.10;59.40
18252;DHT22;26917;52.328;20.878;2022-07-23T11:27:01;35.60;59.30
18252;DHT22;26917;52.328;20.878;2022-07-23T11:29:45;35.30;59.80
18252;DHT22;26917;52.328;20.878;2022-07-23T11:32:37;35.30;61.00
18252;DHT22;26917;52.328;20.878;2022-07-23T11:35:23;35.50;58.80
18252;DHT22;26917;52.328;20.878;2022-07-23T11:37:53;35.70;59.80
18252;DHT22;26917;52.328;20.878;2022-07-23T11:40:34;35.90;59.30
18252;DHT22;26917;52.328;20.878;2022-07-23T11:43:06;35.80;58.30
18252;DHT22;26917;52.328;20.878;2022-07-23T11:45:38;35.20;59.30
18252;DHT22;26917;52.328;20.878;2022-07-23T11:48:19;34.70;62.20
18252;DHT22;26917;52.328;20.878;2022-07-23T11:50:48;34.30;62.60
18252;DHT22;26917;52.328;20.878;2022-07-23T11:53:23;34.00;62.50
18252;DHT22;26917;52.328;20.878;2022-07-23T11:56:03;33.60;64.10
18252;DHT22;26917;52.328;20.878;2022-07-23T11:58:32;33.40;63.30
18252;DHT22;26917;52.328;20.878;2022-07-23T12:01:00;33.20;63.80
18252;DHT22;26917;52.328;20.878;2022-07-23T12:03:30;33.00;63.70
18252;DHT22;26917;52.328;20.878;2022-07-23T12:06:00;32.90;64.70
18252;DHT22;26917;52.328;20.878;2022-07-23T12:08:28;32.90;65.60
18252;DHT22;26917;52.328;20.878;2022-07-23T12:10:58;32.90;67.80
18252;DHT22;26917;52.328;20.878;2022-07-23T12:13:27;33.00;66.00
18252;DHT22;26917;52.328;20.878;2022-07-23T12:15:57;33.10;66.20
18252;DHT22;26917;52.328;20.878;2022-07-23T12:18:26;33.50;65.30
18252;DHT22;26917;52.328;20.878;2022-07-23T12:20:57;33.60;62.70
18252;DHT22;26917;52.328;20.878;2022-07-23T12:23:27;33.70;61.60
18252;DHT22;26917;52.328;20.878;2022-07-23T12:26:02;33.70;63.10
18252;DHT22;26917;52.328;20.878;2022-07-23T12:28:33;33.90;63.30
18252;DHT22;26917;52.328;20.878;2022-07-23T12:31:05;34.20;62.60
18252;DHT22;26917;52.328;20.878;2022-07-23T12:33:36;34.50;61.70
18252;DHT22;26917;52.328;20.878;2022-07-23T12:36:08;34.70;61.60
18252;DHT22;26917;52.328;20.878;2022-07-23T12:38:41;34.80;60.30
18252;DHT22;26917;52.328;20.878;2022-07-23T12:41:15;34.80;61.60
18252;DHT22;26917;52.328;20.878;2022-07-23T12:43:45;34.80;62.30
18252;DHT22;26917;52.328;20.878;2022-07-23T12:46:16;35.20;61.80
18252;DHT22;26917;52.328;20.878;2022-07-23T12:48:51;36.00;56.80
18252;DHT22;26917;52.328;20.878;2022-07-23T12:51:23;37.20;56.90
18252;DHT22;26917;52.328;20.878;2022-07-23T12:53:57;38.10;54.50
18252;DHT22;26917;52.328;20.878;2022-07-23T12:56:31;38.80;54.70
18252;DHT22;26917;52.328;20.878;2022-07-23T12:59:06;38.90;55.00
18252;DHT22;26917;52.328;20.878;2022-07-23T13:01:42;39.20;52.90
18252;DHT22;26917;52.328;20.878;2022-07-23T13:04:19;39.30;53.20
18252;DHT22;26917;52.328;20.878;2022-07-23T13:06:49;39.10;52.10
18252;DHT22;26917;52.328;20.878;2022-07-23T13:09:19;38.70;51.60
18252;DHT22;26917;52.328;20.878;2022-07-23T13:11:52;38.20;53.50
18252;DHT22;26917;52.328;20.878;2022-07-23T13:14:24;37.80;54.50
18252;DHT22;26917;52.328;20.878;2022-07-23T13:16:56;37.20;55.00
18252;DHT22;26917;52.328;20.878;2022-07-23T13:19:28;36.60;56.10
18252;DHT22;26917;52.328;20.878;2022-07-23T13:21:57;35.80;57.10
18252;DHT22;26917;52.328;20.878;2022-07-23T13:24:30;35.20;58.20
18252;DHT22;26917;52.328;20.878;2022-07-23T13:27:00;34.70;57.90
18252;DHT22;26917;52.328;20.878;2022-07-23T13:29:29;34.30;58.40
18252;DHT22;26917;52.328;20.878;2022-07-23T13:31:58;34.00;58.80
18252;DHT22;26917;52.328;20.878;2022-07-23T13:34:26;33.60;59.60
18252;DHT22;26917;52.328;20.878;2022-07-23T13:36:55;33.40;61.30
18252;DHT22;26917;52.328;20.878;2022-07-23T13:39:23;33.20;63.00
18252;DHT22;26917;52.328;20.878;2022-07-23T13:41:54;33.10;64.40
18252;DHT22;26917;52.328;20.878;2022-07-23T13:44:26;33.00;65.50
18252;DHT22;26917;52.328;20.878;2022-07-23T13:46:54;32.90;63.10
18252;DHT22;26917;52.328;20.878;2022-07-23T13:49:24;32.70;61.40
18252;DHT22;26917;52.328;20.878;2022-07-23T13:51:53;32.70;63.00
18252;DHT22;26917;52.328;20.878;2022-07-23T13:54:22;32.60;64.20
18252;DHT22;26917;52.328;20.878;2022-07-23T13:56:51;32.50;66.70
18252;DHT22;26917;52.328;20.878;2022-07-23T13:59:20;32.30;68.00
18252;DHT22;26917;52.328;20.878;2022-07-23T14:01:54;32.10;69.40
18252;DHT22;26917;52.328;20.878;2022-07-23T14:04:43;31.90;70.50
18252;DHT22;26917;52.328;20.878;2022-07-23T14:07:11;31.60;71.10
18252;DHT22;26917;52.328;20.878;2022-07-23T14:09:40;31.40;70.70
18252;DHT22;26917;52.328;20.878;2022-07-23T14:12:10;31.10;71.60
18252;DHT22;26917;52.328;20.878;2022-07-23T14:14:43;30.90;72.00
18252;DHT22;26917;52.328;20.878;2022-07-23T14:17:13;30.60;72.90
18252;DHT22;26917;52.328;20.878;2022-07-23T14:19:42;30.40;74.10
18252;DHT22;26917;52.328;20.878;2022-07-23T14:22:11;30.20;74.80
18252;DHT22;26917;52.328;20.878;2022-07-23T14:24:40;30.00;75.80
18252;DHT22;26917;52.328;20.878;2022-07-23T14:27:09;29.80;76.80
18252;DHT22;26917;52.328;20.878;2022-07-23T14:29:37;29.60;77.10
18252;DHT22;26917;52.328;20.878;2022-07-23T14:32:06;29.50;77.50
18252;DHT22;26917;52.328;20.878;2022-07-23T14:34:36;29.40;78.40
18252;DHT22;26917;52.328;20.878;2022-07-23T14:37:05;29.10;77.80
18252;DHT22;26917;52.328;20.878;2022-07-23T14:39:42;28.60;80.30
18252;DHT22;26917;52.328;20.878;2022-07-23T14:42:15;27.60;83.70
18252;DHT22;26917;52.328;20.878;2022-07-23T14:44:44;26.90;86.80
18252;DHT22;26917;52.328;20.878;2022-07-23T14:47:15;26.20;90.50
18252;DHT22;26917;52.328;20.878;2022-07-23T14:49:49;25.40;95.50
18252;DHT22;26917;52.328;20.878;2022-07-23T14:52:18;23.80;99.70
18252;DHT22;26917;52.328;20.878;2022-07-23T15:11:47;19.80;99.90
18252;DHT22;26917;52.328;20.878;2022-07-23T15:22:46;19.70;99.90
18252;DHT22;26917;52.328;20.878;2022-07-23T15:33:11;19.80;99.90
18252;DHT22;26917;52.328;20.878;2022-07-23T15:37:03;19.80;99.90
18252;DHT22;26917;52.328;20.878;2022-07-23T15:40:41;19.90;99.90
18252;DHT22;26917;52.328;20.878;2022-07-23T15:44:28;19.90;99.90
18252;DHT22;26917;52.328;20.878;2022-07-23T16:14:33;19.90;99.90
18252;DHT22;26917;52.328;20.878;2022-07-23T16:18:00;19.80;99.90
18252;DHT22;26917;52.328;20.878;2022-07-23T16:25:08;19.70;99.90
18252;DHT22;26917;52.328;20.878;2022-07-23T16:29:03;19.70;99.90
18252;DHT22;26917;52.328;20.878;2022-07-23T16:36:55;19.50;99.90
18252;DHT22;26917;52.328;20.878;2022-07-23T16:40:34;19.40;99.90
18252;DHT22;26917;52.328;20.878;2022-07-23T16:51:56;19.50;99.90
18252;DHT22;26917;52.328;20.878;2022-07-23T17:24:51;19.40;99.90
18252;DHT22;26917;52.328;20.878;2022-07-23T17:33:21;19.40;99.90
18252;DHT22;26917;52.328;20.878;2022-07-23T17:45:12;19.40;99.90
18252;DHT22;26917;52.328;20.878;2022-07-23T17:55:37;19.40;99.90
18252;DHT22;26917;52.328;20.878;2022-07-23T18:17:58;19.10;99.90
18252;DHT22;26917;52.328;20.878;2022-07-23T18:25:23;19.00;99.90
18252;DHT22;26917;52.328;20.878;2022-07-23T18:32:34;19.00;99.90
18252;DHT22;26917;52.328;20.878;2022-07-23T18:39:47;19.00;99.90